sensor_id;sensor_type;location;lat;lon;timestamp;pressure;altitude;pressure_sealevel;temperature;humidity
49759;BME280;35654;46.080;11.118;2023-03-14T00:02:14;98639.84;;;11.73;70.50
49759;BME280;35654;46.080;11.118;2023-03-14T00:04:41;98648.66;;;11.61;71.93
49759;BME280;35654;46.080;11.118;2023-03-14T00:07:07;98640.13;;;11.63;73.53
49759;BME280;35654;46.080;11.118;2023-03-14T00:09:33;98640.31;;;11.66;73.97
49759;BME280;35654;46.080;11.118;2023-03-14T00:12:00;98638.38;;;11.76;74.52
49759;BME280;35654;46.080;11.118;2023-03-14T00:14:30;98645.31;;;11.73;74.29
49759;BME280;35654;46.080;11.118;2023-03-14T00:16:57;98639.56;;;11.83;74.78
49759;BME280;35654;46.080;11.118;2023-03-14T00:19:23;98632.38;;;11.65;77.85
49759;BME280;35654;46.080;11.118;2023-03-14T00:21:50;98623.03;;;11.66;79.16
49759;BME280;35654;46.080;11.118;2023-03-14T00:24:17;98632.50;;;11.51;80.78
49759;BME280;35654;46.080;11.118;2023-03-14T00:26:43;98633.94;;;11.40;82.54
49759;BME280;35654;46.080;11.118;2023-03-14T00:29:09;98627.31;;;11.33;84.42
49759;BME280;35654;46.080;11.118;2023-03-14T00:31:36;98620.84;;;11.29;86.11
49759;BME280;35654;46.080;11.118;2023-03-14T00:34:03;98621.31;;;11.22;87.18
49759;BME280;35654;46.080;11.118;2023-03-14T00:36:30;98615.94;;;11.17;88.77
49759;BME280;35654;46.080;11.118;2023-03-14T00:38:56;98621.53;;;11.03;90.69
49759;BME280;35654;46.080;11.118;2023-03-14T00:41:22;98622.69;;;11.02;91.82
49759;BME280;35654;46.080;11.118;2023-03-14T00:43:49;98618.59;;;10.91;93.30
49759;BME280;35654;46.080;11.118;2023-03-14T00:46:16;98626.25;;;10.81;94.34
49759;BME280;35654;46.080;11.118;2023-03-14T00:48:44;98601.84;;;10.62;97.04
49759;BME280;35654;46.080;11.118;2023-03-14T00:51:10;98597.06;;;10.45;98.92
49759;BME280;35654;46.080;11.118;2023-03-14T00:53:40;98602.69;;;10.40;100.00
49759;BME280;35654;46.080;11.118;2023-03-14T00:56:08;98595.53;;;10.31;100.00
49759;BME280;35654;46.080;11.118;2023-03-14T00:58:36;98580.25;;;10.30;100.00
49759;BME280;35654;46.080;11.118;2023-03-14T01:01:07;98566.06;;;10.28;100.00
49759;BME280;35654;46.080;11.118;2023-03-14T01:03:33;98568.31;;;10.26;100.00
49759;BME280;35654;46.080;11.118;2023-03-14T01:06:16;98560.72;;;10.23;100.00
49759;BME280;35654;46.080;11.118;2023-03-14T01:08:43;98556.69;;;10.20;100.00
49759;BME280;35654;46.080;11.118;2023-03-14T01:11:10;98533.69;;;10.21;100.00
49759;BME280;35654;46.080;11.118;2023-03-14T01:13:38;98535.47;;;10.26;100.00
49759;BME280;35654;46.080;11.118;2023-03-14T01:16:06;98519.88;;;10.26;100.00
49759;BME280;35654;46.080;11.118;2023-03-14T01:18:33;98518.78;;;10.36;100.00
49759;BME280;35654;46.080;11.118;2023-03-14T01:21:03;98516.50;;;10.29;100.00
49759;BME280;35654;46.080;11.118;2023-03-14T01:23:30;98498.47;;;10.28;100.00
49759;BME280;35654;46.080;11.118;2023-03-14T01:25:56;98493.00;;;10.28;100.00
49759;BME280;35654;46.080;11.118;2023-03-14T01:28:24;98481.28;;;10.36;100.00
49759;BME280;35654;46.080;11.118;2023-03-14T01:30:50;98465.97;;;10.27;100.00
49759;BME280;35654;46.080;11.118;2023-03-14T01:33:17;98451.28;;;10.23;100.00
49759;BME280;35654;46.080;11.118;2023-03-14T01:35:43;98440.03;;;10.24;100.00
49759;BME280;35654;46.080;11.118;2023-03-14T01:38:10;98422.63;;;10.20;100.00
49759;BME280;35654;46.080;11.118;2023-03-14T01:40:46;98416.81;;;10.13;100.00
49759;BME280;35654;46.080;11.118;2023-03-14T01:43:16;98405.22;;;10.16;100.00
49759;BME280;35654;46.080;11.118;2023-03-14T01:48:31;98402.69;;;10.28;100.00
49759;BME280;35654;46.080;11.118;2023-03-14T01:50:58;98415.44;;;10.33;100.00
49759;BME280;35654;46.080;11.118;2023-03-14T01:53:26;98395.59;;;10.27;100.00
49759;BME280;35654;46.080;11.118;2023-03-14T01:55:53;98387.56;;;10.31;100.00
49759;BME280;35654;46.080;11.118;2023-03-14T01:58:21;98372.50;;;10.50;100.00
49759;BME280;35654;46.080;11.118;2023-03-14T02:00:49;98369.31;;;10.57;100.00
49759;BME280;35654;46.080;11.118;2023-03-14T02:03:16;98369.50;;;10.61;100.00
49759;BME280;35654;46.080;11.118;2023-03-14T02:05:43;98359.47;;;10.56;100.00
49759;BME280;35654;46.080;11.118;2023-03-14T02:08:11;98349.16;;;10.44;100.00
49759;BME280;35654;46.080;11.118;2023-03-14T02:10:42;98346.34;;;10.27;100.00
49759;BME280;35654;46.080;11.118;2023-03-14T02:13:09;98344.25;;;10.16;100.00
49759;BME280;35654;46.080;11.118;2023-03-14T02:15:37;98342.28;;;10.16;100.00
49759;BME280;35654;46.080;11.118;2023-03-14T02:18:04;98339.09;;;10.14;100.00
49759;BME280;35654;46.080;11.118;2023-03-14T02:23:16;98326.53;;;10.22;100.00
49759;BME280;35654;46.080;11.118;2023-03-14T02:25:52;98318.69;;;10.29;100.00
49759;BME280;35654;46.080;11.118;2023-03-14T02:28:22;98308.25;;;10.39;100.00
49759;BME280;35654;46.080;11.118;2023-03-14T02:30:49;98301.19;;;10.38;100.00
49759;BME280;35654;46.080;11.118;2023-03-14T02:33:17;98293.91;;;10.34;100.00
49759;BME280;35654;46.080;11.118;2023-03-14T02:35:50;98300.03;;;10.39;100.00
49759;BME280;35654;46.080;11.118;2023-03-14T02:38:35;98297.31;;;10.39;100.00
49759;BME280;35654;46.080;11.118;2023-03-14T02:41:03;98304.56;;;10.35;100.00
49759;BME280;35654;46.080;11.118;2023-03-14T02:43:29;98293.09;;;10.33;100.00
49759;BME280;35654;46.080;11.118;2023-03-14T02:45:56;98283.13;;;10.29;100.00
49759;BME280;35654;46.080;11.118;2023-03-14T02:48:24;98277.81;;;10.24;100.00
49759;BME280;35654;46.080;11.118;2023-03-14T02:50:52;98273.78;;;10.21;100.00
49759;BME280;35654;46.080;11.118;2023-03-14T02:53:21;98268.16;;;10.26;100.00
49759;BME280;35654;46.080;11.118;2023-03-14T02:55:49;98264.78;;;10.29;100.00
49759;BME280;35654;46.080;11.118;2023-03-14T02:58:16;98262.22;;;10.33;100.00
49759;BME280;35654;46.080;11.118;2023-03-14T03:00:42;98275.25;;;10.36;100.00
49759;BME280;35654;46.080;11.118;2023-03-14T03:03:09;98269.72;;;10.10;100.00
49759;BME280;35654;46.080;11.118;2023-03-14T03:05:34;98243.19;;;10.19;100.00
49759;BME280;35654;46.080;11.118;2023-03-14T03:08:01;98258.81;;;10.19;100.00
49759;BME280;35654;46.080;11.118;2023-03-14T03:10:27;98266.69;;;10.20;100.00
49759;BME280;35654;46.080;11.118;2023-03-14T03:12:54;98265.59;;;10.21;100.00
49759;BME280;35654;46.080;11.118;2023-03-14T03:15:21;98254.63;;;10.21;100.00
49759;BME280;35654;46.080;11.118;2023-03-14T03:17:47;98229.22;;;10.21;100.00
49759;BME280;35654;46.080;11.118;2023-03-14T03:20:14;98238.22;;;10.21;100.00
49759;BME280;35654;46.080;11.118;2023-03-14T03:22:41;98235.34;;;10.26;100.00
49759;BME280;35654;46.080;11.118;2023-03-14T03:25:07;98231.63;;;10.31;100.00
49759;BME280;35654;46.080;11.118;2023-03-14T03:27:34;98228.59;;;10.32;100.00
49759;BME280;35654;46.080;11.118;2023-03-14T03:30:02;98220.22;;;10.37;100.00
49759;BME280;35654;46.080;11.118;2023-03-14T03:32:28;98222.28;;;10.32;100.00
49759;BME280;35654;46.080;11.118;2023-03-14T03:34:55;98238.25;;;10.30;100.00
49759;BME280;35654;46.080;11.118;2023-03-14T03:37:21;98234.19;;;10.19;100.00
49759;BME280;35654;46.080;11.118;2023-03-14T03:39:49;98215.00;;;10.10;100.00
49759;BME280;35654;46.080;11.118;2023-03-14T03:42:16;98233.97;;;10.07;100.00
49759;BME280;35654;46.080;11.118;2023-03-14T03:44:42;98248.66;;;10.19;100.00
49759;BME280;35654;46.080;11.118;2023-03-14T03:47:09;98216.34;;;10.21;100.00
49759;BME280;35654;46.080;11.118;2023-03-14T03:49:36;98199.28;;;10.16;100.00
49759;BME280;35654;46.080;11.118;2023-03-14T03:52:02;98226.13;;;10.22;100.00
49759;BME280;35654;46.080;11.118;2023-03-14T03:54:29;98233.53;;;10.30;100.00
49759;BME280;35654;46.080;11.118;2023-03-14T03:56:56;98226.00;;;10.36;100.00
49759;BME280;35654;46.080;11.118;2023-03-14T03:59:22;98216.00;;;10.31;100.00
49759;BME280;35654;46.080;11.118;2023-03-14T04:01:49;98204.09;;;10.36;100.00
49759;BME280;35654;46.080;11.118;2023-03-14T04:04:16;98201.88;;;10.38;100.00
49759;BME280;35654;46.080;11.118;2023-03-14T04:06:43;98183.03;;;10.36;100.00
49759;BME280;35654;46.080;11.118;2023-03-14T04:09:09;98192.19;;;10.32;100.00
49759;BME280;35654;46.080;11.118;2023-03-14T04:11:36;98191.22;;;10.36;100.00
49759;BME280;35654;46.080;11.118;2023-03-14T04:14:03;98178.06;;;10.38;100.00
49759;BME280;35654;46.080;11.118;2023-03-14T04:16:30;98172.88;;;10.45;100.00
49759;BME280;35654;46.080;11.118;2023-03-14T04:19:00;98159.66;;;10.47;100.00
49759;BME280;35654;46.080;11.118;2023-03-14T04:21:26;98170.16;;;10.37;100.00
49759;BME280;35654;46.080;11.118;2023-03-14T04:23:52;98167.88;;;10.30;100.00
49759;BME280;35654;46.080;11.118;2023-03-14T04:26:19;98154.06;;;10.27;100.00
49759;BME280;35654;46.080;11.118;2023-03-14T04:28:45;98150.03;;;10.24;100.00
49759;BME280;35654;46.080;11.118;2023-03-14T04:31:13;98140.69;;;10.25;100.00
49759;BME280;35654;46.080;11.118;2023-03-14T04:33:40;98122.34;;;10.26;100.00
49759;BME280;35654;46.080;11.118;2023-03-14T04:36:06;98102.38;;;10.34;100.00
49759;BME280;35654;46.080;11.118;2023-03-14T04:38:33;98109.47;;;10.43;100.00
49759;BME280;35654;46.080;11.118;2023-03-14T04:41:00;98103.81;;;10.48;100.00
49759;BME280;35654;46.080;11.118;2023-03-14T04:43:26;98086.41;;;10.53;100.00
49759;BME280;35654;46.080;11.118;2023-03-14T04:45:56;98106.19;;;10.59;100.00
49759;BME280;35654;46.080;11.118;2023-03-14T04:48:24;98107.50;;;10.52;100.00
49759;BME280;35654;46.080;11.118;2023-03-14T04:50:51;98084.31;;;10.59;100.00
49759;BME280;35654;46.080;11.118;2023-03-14T04:53:18;98082.34;;;10.68;100.00
49759;BME280;35654;46.080;11.118;2023-03-14T04:55:49;98080.94;;;10.53;100.00
49759;BME280;35654;46.080;11.118;2023-03-14T04:58:16;98075.16;;;10.55;100.00
49759;BME280;35654;46.080;11.118;2023-03-14T05:00:42;98067.56;;;10.60;100.00
49759;BME280;35654;46.080;11.118;2023-03-14T05:03:08;98078.19;;;10.62;100.00
49759;BME280;35654;46.080;11.118;2023-03-14T05:05:35;98092.53;;;10.59;100.00
49759;BME280;35654;46.080;11.118;2023-03-14T05:08:01;98086.72;;;10.60;100.00
49759;BME280;35654;46.080;11.118;2023-03-14T05:10:28;98096.41;;;10.49;100.00
49759;BME280;35654;46.080;11.118;2023-03-14T05:12:55;98076.63;;;10.43;100.00
49759;BME280;35654;46.080;11.118;2023-03-14T05:15:21;98074.38;;;10.45;100.00
49759;BME280;35654;46.080;11.118;2023-03-14T05:17:48;98069.88;;;10.41;100.00
49759;BME280;35654;46.080;11.118;2023-03-14T05:20:15;98064.88;;;10.43;100.00
49759;BME280;35654;46.080;11.118;2023-03-14T05:22:42;98052.75;;;10.52;100.00
49759;BME280;35654;46.080;11.118;2023-03-14T05:25:09;98048.44;;;10.51;100.00
49759;BME280;35654;46.080;11.118;2023-03-14T05:27:36;98046.34;;;10.48;100.00
49759;BME280;35654;46.080;11.118;2023-03-14T05:30:03;98019.63;;;10.45;100.00
49759;BME280;35654;46.080;11.118;2023-03-14T05:32:30;97996.13;;;10.44;100.00
49759;BME280;35654;46.080;11.118;2023-03-14T05:34:57;97990.50;;;10.49;100.00
49759;BME280;35654;46.080;11.118;2023-03-14T05:37:25;97987.06;;;10.52;100.00
49759;BME280;35654;46.080;11.118;2023-03-14T05:39:52;97979.19;;;10.60;100.00
49759;BME280;35654;46.080;11.118;2023-03-14T05:42:18;97951.00;;;10.59;100.00
49759;BME280;35654;46.080;11.118;2023-03-14T05:44:45;97951.34;;;10.58;100.00
49759;BME280;35654;46.080;11.118;2023-03-14T05:47:11;97942.00;;;10.50;100.00
49759;BME280;35654;46.080;11.118;2023-03-14T05:49:38;97911.59;;;10.51;100.00
49759;BME280;35654;46.080;11.118;2023-03-14T05:52:05;97941.28;;;10.41;100.00
49759;BME280;35654;46.080;11.118;2023-03-14T05:54:31;97969.47;;;10.33;100.00
49759;BME280;35654;46.080;11.118;2023-03-14T05:56:58;97987.00;;;10.32;100.00
49759;BME280;35654;46.080;11.118;2023-03-14T05:59:24;98015.28;;;10.44;100.00
49759;BME280;35654;46.080;11.118;2023-03-14T06:01:51;98027.69;;;10.42;100.00
49759;BME280;35654;46.080;11.118;2023-03-14T06:04:17;98031.88;;;10.39;100.00
49759;BME280;35654;46.080;11.118;2023-03-14T06:06:44;98020.09;;;10.47;100.00
49759;BME280;35654;46.080;11.118;2023-03-14T06:09:10;98022.03;;;10.47;100.00
49759;BME280;35654;46.080;11.118;2023-03-14T06:11:37;98025.72;;;10.51;100.00
49759;BME280;35654;46.080;11.118;2023-03-14T06:14:04;98028.28;;;10.56;100.00
49759;BME280;35654;46.080;11.118;2023-03-14T06:16:30;98030.09;;;10.52;100.00
49759;BME280;35654;46.080;11.118;2023-03-14T06:18:58;98037.97;;;10.45;100.00
49759;BME280;35654;46.080;11.118;2023-03-14T06:21:23;98036.69;;;10.42;100.00
49759;BME280;35654;46.080;11.118;2023-03-14T06:23:50;98039.78;;;10.41;100.00
49759;BME280;35654;46.080;11.118;2023-03-14T06:26:16;98046.81;;;10.50;100.00
49759;BME280;35654;46.080;11.118;2023-03-14T06:28:43;98031.22;;;10.51;100.00
49759;BME280;35654;46.080;11.118;2023-03-14T06:31:09;98028.63;;;10.55;100.00
49759;BME280;35654;46.080;11.118;2023-03-14T06:33:36;98031.66;;;10.62;100.00
49759;BME280;35654;46.080;11.118;2023-03-14T06:36:03;98026.19;;;10.62;100.00
49759;BME280;35654;46.080;11.118;2023-03-14T06:38:29;98029.25;;;10.60;100.00
49759;BME280;35654;46.080;11.118;2023-03-14T06:40:54;98030.56;;;10.54;100.00
49759;BME280;35654;46.080;11.118;2023-03-14T06:43:21;98027.16;;;10.57;100.00
49759;BME280;35654;46.080;11.118;2023-03-14T06:45:48;98021.53;;;10.53;100.00
49759;BME280;35654;46.080;11.118;2023-03-14T06:48:14;98023.47;;;10.53;100.00
49759;BME280;35654;46.080;11.118;2023-03-14T06:50:41;98017.38;;;10.47;100.00
49759;BME280;35654;46.080;11.118;2023-03-14T06:53:08;98011.25;;;10.50;100.00
49759;BME280;35654;46.080;11.118;2023-03-14T06:55:34;98018.16;;;10.48;100.00
49759;BME280;35654;46.080;11.118;2023-03-14T06:58:01;98026.03;;;10.58;100.00
49759;BME280;35654;46.080;11.118;2023-03-14T07:00:28;98025.69;;;10.68;100.00
49759;BME280;35654;46.080;11.118;2023-03-14T07:02:54;98033.56;;;10.70;100.00
49759;BME280;35654;46.080;11.118;2023-03-14T07:05:21;98024.41;;;10.66;100.00
49759;BME280;35654;46.080;11.118;2023-03-14T07:07:47;98022.97;;;10.60;100.00
49759;BME280;35654;46.080;11.118;2023-03-14T07:10:14;98027.94;;;10.66;100.00
49759;BME280;35654;46.080;11.118;2023-03-14T07:12:40;98025.31;;;10.78;100.00
49759;BME280;35654;46.080;11.118;2023-03-14T07:15:07;98024.97;;;10.88;100.00
49759;BME280;35654;46.080;11.118;2023-03-14T07:17:34;98035.69;;;11.02;100.00
49759;BME280;35654;46.080;11.118;2023-03-14T07:20:00;98023.69;;;11.15;100.00
49759;BME280;35654;46.080;11.118;2023-03-14T07:22:27;98015.22;;;11.29;100.00
49759;BME280;35654;46.080;11.118;2023-03-14T07:24:53;98011.75;;;11.40;100.00
49759;BME280;35654;46.080;11.118;2023-03-14T07:27:20;98012.22;;;11.42;100.00
49759;BME280;35654;46.080;11.118;2023-03-14T07:29:46;98006.28;;;11.40;100.00
49759;BME280;35654;46.080;11.118;2023-03-14T07:32:13;98010.13;;;11.39;100.00
49759;BME280;35654;46.080;11.118;2023-03-14T07:34:41;98018.91;;;11.33;100.00
49759;BME280;35654;46.080;11.118;2023-03-14T07:37:08;98012.56;;;11.41;100.00
49759;BME280;35654;46.080;11.118;2023-03-14T07:39:34;98014.09;;;11.50;100.00
49759;BME280;35654;46.080;11.118;2023-03-14T07:42:01;98031.50;;;11.54;100.00
49759;BME280;35654;46.080;11.118;2023-03-14T07:44:28;98030.16;;;11.60;100.00
49759;BME280;35654;46.080;11.118;2023-03-14T07:46:55;98026.88;;;11.67;100.00
49759;BME280;35654;46.080;11.118;2023-03-14T07:49:21;98034.63;;;11.65;100.00
49759;BME280;35654;46.080;11.118;2023-03-14T07:51:51;98039.00;;;11.66;100.00
49759;BME280;35654;46.080;11.118;2023-03-14T07:54:17;98040.56;;;11.67;100.00
49759;BME280;35654;46.080;11.118;2023-03-14T07:56:43;98040.56;;;11.67;100.00
49759;BME280;35654;46.080;11.118;2023-03-14T07:59:09;98033.78;;;11.73;100.00
49759;BME280;35654;46.080;11.118;2023-03-14T08:01:35;98044.75;;;11.73;100.00
49759;BME280;35654;46.080;11.118;2023-03-14T08:04:01;98035.19;;;11.79;100.00
49759;BME280;35654;46.080;11.118;2023-03-14T08:06:28;98040.00;;;11.82;100.00
49759;BME280;35654;46.080;11.118;2023-03-14T08:08:54;98040.53;;;11.76;100.00
49759;BME280;35654;46.080;11.118;2023-03-14T08:11:21;98037.34;;;11.74;100.00
49759;BME280;35654;46.080;11.118;2023-03-14T08:13:48;98032.47;;;11.79;100.00
49759;BME280;35654;46.080;11.118;2023-03-14T08:16:16;98032.19;;;11.93;100.00
49759;BME280;35654;46.080;11.118;2023-03-14T08:18:44;98032.38;;;12.08;100.00
49759;BME280;35654;46.080;11.118;2023-03-14T08:21:11;98025.31;;;12.19;100.00
49759;BME280;35654;46.080;11.118;2023-03-14T08:23:38;98018.88;;;12.36;100.00
49759;BME280;35654;46.080;11.118;2023-03-14T08:26:04;98017.97;;;12.56;100.00
49759;BME280;35654;46.080;11.118;2023-03-14T08:28:31;98023.63;;;12.72;100.00
49759;BME280;35654;46.080;11.118;2023-03-14T08:30:58;98020.09;;;12.83;100.00
49759;BME280;35654;46.080;11.118;2023-03-14T08:33:24;98029.50;;;13.19;98.46
49759;BME280;35654;46.080;11.118;2023-03-14T08:35:51;98022.84;;;13.44;96.13
49759;BME280;35654;46.080;11.118;2023-03-14T08:38:17;98026.41;;;13.57;94.60
49759;BME280;35654;46.080;11.118;2023-03-14T08:40:42;98028.03;;;13.21;91.22
49759;BME280;35654;46.080;11.118;2023-03-14T08:43:07;98018.41;;;13.15;89.83
49759;BME280;35654;46.080;11.118;2023-03-14T08:45:32;98010.75;;;13.09;91.56
49759;BME280;35654;46.080;11.118;2023-03-14T08:47:58;97995.97;;;13.13;89.92
49759;BME280;35654;46.080;11.118;2023-03-14T08:50:23;97998.94;;;13.08;90.75
49759;BME280;35654;46.080;11.118;2023-03-14T08:52:49;98004.06;;;12.85;90.80
49759;BME280;35654;46.080;11.118;2023-03-14T08:55:14;97999.94;;;12.79;92.67
49759;BME280;35654;46.080;11.118;2023-03-14T08:57:40;98003.94;;;12.94;92.77
49759;BME280;35654;46.080;11.118;2023-03-14T09:00:05;98005.44;;;13.04;90.93
49759;BME280;35654;46.080;11.118;2023-03-14T09:02:36;97989.75;;;12.92;87.65
49759;BME280;35654;46.080;11.118;2023-03-14T09:05:01;97985.28;;;13.00;87.42
49759;BME280;35654;46.080;11.118;2023-03-14T09:07:27;97994.56;;;12.83;90.15
49759;BME280;35654;46.080;11.118;2023-03-14T09:09:52;97989.41;;;12.69;92.90
49759;BME280;35654;46.080;11.118;2023-03-14T09:12:18;97988.16;;;13.03;91.33
49759;BME280;35654;46.080;11.118;2023-03-14T09:14:45;97982.66;;;13.39;87.84
49759;BME280;35654;46.080;11.118;2023-03-14T09:17:12;97979.78;;;13.48;87.11
49759;BME280;35654;46.080;11.118;2023-03-14T09:19:38;97978.38;;;13.82;85.22
49759;BME280;35654;46.080;11.118;2023-03-14T09:22:05;97986.34;;;13.99;82.99
49759;BME280;35654;46.080;11.118;2023-03-14T09:24:31;97989.72;;;13.53;85.90
49759;BME280;35654;46.080;11.118;2023-03-14T09:26:58;97982.50;;;13.88;83.54
49759;BME280;35654;46.080;11.118;2023-03-14T09:29:24;97983.50;;;13.95;82.69
49759;BME280;35654;46.080;11.118;2023-03-14T09:31:51;97989.78;;;13.96;82.07
49759;BME280;35654;46.080;11.118;2023-03-14T09:34:16;97979.09;;;14.07;81.48
49759;BME280;35654;46.080;11.118;2023-03-14T09:36:44;97970.41;;;14.48;80.18
49759;BME280;35654;46.080;11.118;2023-03-14T09:39:13;97964.88;;;14.32;74.96
49759;BME280;35654;46.080;11.118;2023-03-14T09:41:41;97966.69;;;14.56;75.76
49759;BME280;35654;46.080;11.118;2023-03-14T09:44:21;97962.53;;;14.62;76.82
49759;BME280;35654;46.080;11.118;2023-03-14T09:46:50;97960.19;;;14.80;73.14
49759;BME280;35654;46.080;11.118;2023-03-14T09:52:25;97960.81;;;15.04;73.38
49759;BME280;35654;46.080;11.118;2023-03-14T09:55:00;97956.53;;;15.07;73.17
49759;BME280;35654;46.080;11.118;2023-03-14T09:57:29;97946.50;;;15.34;75.43
49759;BME280;35654;46.080;11.118;2023-03-14T09:59:56;97946.38;;;15.46;73.43
49759;BME280;35654;46.080;11.118;2023-03-14T10:02:28;97951.22;;;15.68;73.84
49759;BME280;35654;46.080;11.118;2023-03-14T10:04:58;97945.72;;;15.68;74.02
49759;BME280;35654;46.080;11.118;2023-03-14T10:07:31;97951.44;;;15.44;74.80
49759;BME280;35654;46.080;11.118;2023-03-14T10:09:58;97950.03;;;14.99;73.77
49759;BME280;35654;46.080;11.118;2023-03-14T10:12:35;97945.34;;;14.84;75.31
49759;BME280;35654;46.080;11.118;2023-03-14T10:15:03;97950.25;;;14.75;74.34
49759;BME280;35654;46.080;11.118;2023-03-14T10:17:29;97942.50;;;14.49;74.98
49759;BME280;35654;46.080;11.118;2023-03-14T10:19:56;97939.31;;;14.32;73.91
49759;BME280;35654;46.080;11.118;2023-03-14T10:22:23;97935.06;;;14.50;72.83
49759;BME280;35654;46.080;11.118;2023-03-14T10:24:51;97932.47;;;14.73;71.70
49759;BME280;35654;46.080;11.118;2023-03-14T10:27:18;97926.56;;;15.05;71.73
49759;BME280;35654;46.080;11.118;2023-03-14T10:29:52;97927.63;;;15.36;71.72
49759;BME280;35654;46.080;11.118;2023-03-14T10:32:19;97926.03;;;15.15;72.50
49759;BME280;35654;46.080;11.118;2023-03-14T10:34:44;97932.59;;;16.03;67.88
49759;BME280;35654;46.080;11.118;2023-03-14T10:37:17;97922.78;;;16.48;65.64
49759;BME280;35654;46.080;11.118;2023-03-14T10:39:51;97931.69;;;15.57;69.46
49759;BME280;35654;46.080;11.118;2023-03-14T10:45:04;97918.38;;;15.09;71.58
49759;BME280;35654;46.080;11.118;2023-03-14T10:47:33;97918.38;;;14.43;73.62
49759;BME280;35654;46.080;11.118;2023-03-14T10:50:19;97901.09;;;14.62;71.29
49759;BME280;35654;46.080;11.118;2023-03-14T10:52:47;97904.66;;;14.78;72.05
49759;BME280;35654;46.080;11.118;2023-03-14T10:55:13;97903.63;;;15.01;70.35
49759;BME280;35654;46.080;11.118;2023-03-14T10:57:39;97904.31;;;15.14;69.40
49759;BME280;35654;46.080;11.118;2023-03-14T11:00:14;97902.41;;;15.53;69.09
49759;BME280;35654;46.080;11.118;2023-03-14T11:08:21;97907.28;;;15.59;69.02
49759;BME280;35654;46.080;11.118;2023-03-14T11:10:49;97903.94;;;15.50;69.71
49759;BME280;35654;46.080;11.118;2023-03-14T11:29:41;97865.16;;;21.19;49.00
49759;BME280;35654;46.080;11.118;2023-03-14T11:32:13;97861.53;;;23.59;41.06
49759;BME280;35654;46.080;11.118;2023-03-14T11:39:47;97858.78;;;18.61;52.49
49759;BME280;35654;46.080;11.118;2023-03-14T11:42:17;97857.66;;;19.38;51.70
49759;BME280;35654;46.080;11.118;2023-03-14T11:44:46;97854.44;;;19.25;51.21
49759;BME280;35654;46.080;11.118;2023-03-14T11:57:48;97849.13;;;19.74;48.44
49759;BME280;35654;46.080;11.118;2023-03-14T12:03:46;97839.88;;;16.97;57.79
49759;BME280;35654;46.080;11.118;2023-03-14T12:06:02;97834.94;;;16.83;59.50
49759;BME280;35654;46.080;11.118;2023-03-14T12:08:42;97836.28;;;16.66;60.96
49759;BME280;35654;46.080;11.118;2023-03-14T12:11:12;97832.59;;;16.59;60.67
49759;BME280;35654;46.080;11.118;2023-03-14T12:13:40;97828.13;;;16.28;61.54
49759;BME280;35654;46.080;11.118;2023-03-14T12:16:18;97823.88;;;16.11;62.72
49759;BME280;35654;46.080;11.118;2023-03-14T12:18:49;97822.91;;;15.39;64.15
49759;BME280;35654;46.080;11.118;2023-03-14T12:21:16;97815.13;;;15.06;64.82
49759;BME280;35654;46.080;11.118;2023-03-14T12:23:53;97820.28;;;15.27;64.91
49759;BME280;35654;46.080;11.118;2023-03-14T12:26:25;97810.94;;;15.51;64.74
49759;BME280;35654;46.080;11.118;2023-03-14T12:31:40;97800.22;;;15.88;62.31
49759;BME280;35654;46.080;11.118;2023-03-14T12:47:49;97787.50;;;15.83;62.16
49759;BME280;35654;46.080;11.118;2023-03-14T12:50:21;97797.63;;;16.70;60.25
49759;BME280;35654;46.080;11.118;2023-03-14T13:01:04;97780.94;;;16.63;59.27
49759;BME280;35654;46.080;11.118;2023-03-14T13:06:44;97774.56;;;20.89;44.74
49759;BME280;35654;46.080;11.118;2023-03-14T13:09:34;97773.81;;;20.36;46.25
49759;BME280;35654;46.080;11.118;2023-03-14T13:11:49;97769.78;;;19.70;48.87
49759;BME280;35654;46.080;11.118;2023-03-14T13:14:16;97772.91;;;19.58;47.89
49759;BME280;35654;46.080;11.118;2023-03-14T13:16:42;97767.53;;;17.94;52.45
49759;BME280;35654;46.080;11.118;2023-03-14T13:19:17;97762.03;;;18.01;52.97
49759;BME280;35654;46.080;11.118;2023-03-14T13:21:45;97760.63;;;18.73;51.39
49759;BME280;35654;46.080;11.118;2023-03-14T13:24:26;97758.06;;;19.18;50.03
49759;BME280;35654;46.080;11.118;2023-03-14T13:26:54;97756.56;;;22.02;43.04
49759;BME280;35654;46.080;11.118;2023-03-14T13:31:50;97756.38;;;23.42;38.42
49759;BME280;35654;46.080;11.118;2023-03-14T13:34:17;97731.59;;;24.01;37.79
49759;BME280;35654;46.080;11.118;2023-03-14T13:36:44;97736.56;;;22.99;39.24
49759;BME280;35654;46.080;11.118;2023-03-14T13:39:21;97734.63;;;22.08;40.93
49759;BME280;35654;46.080;11.118;2023-03-14T13:42:01;97750.28;;;21.84;41.36
49759;BME280;35654;46.080;11.118;2023-03-14T13:44:31;97730.44;;;21.75;41.79
49759;BME280;35654;46.080;11.118;2023-03-14T13:47:01;97739.50;;;21.20;43.27
49759;BME280;35654;46.080;11.118;2023-03-14T13:49:27;97721.38;;;20.52;44.54
49759;BME280;35654;46.080;11.118;2023-03-14T13:51:58;97738.88;;;20.39;44.53
49759;BME280;35654;46.080;11.118;2023-03-14T13:54:23;97736.78;;;20.99;43.05
49759;BME280;35654;46.080;11.118;2023-03-14T13:56:59;97724.84;;;20.91;43.05
49759;BME280;35654;46.080;11.118;2023-03-14T13:59:25;97717.78;;;20.69;43.78
49759;BME280;35654;46.080;11.118;2023-03-14T14:01:51;97726.41;;;21.03;43.08
49759;BME280;35654;46.080;11.118;2023-03-14T14:04:18;97724.59;;;20.40;44.19
49759;BME280;35654;46.080;11.118;2023-03-14T14:06:45;97731.94;;;21.24;42.95
49759;BME280;35654;46.080;11.118;2023-03-14T14:09:13;97732.31;;;21.95;40.80